Portada
METAR-TAF:

METAR-TAF

Aeroports :

Aeroport d'Oujda-Angads

Oujda, Marroc

latitud: 34-47N, longitud: 001-56W, altitud: 468 m

Observació

L'informe es va fer fa 8 minuts, a les 22:00 UTC
Vent 5 kt del Sud/Sud-Oest
Temperatura 7°C
Humitat 87%
Pressió 1028 hPa
Visibilitat 10 km o més
sense núvols per sota de 1500 mi sense presència de cumulonimbus.

METAR: GMFO 172200Z 21005KT CAVOK 07/05 Q1028 NOSIG

Hora: 23:08 (22:08 UTC)

Pronòstic

L'informe es va fer fa 5 hores i 8 minuts, a les 17:00 UTC
Pronòstic vàlid del 17 a les 18 UTC al 18 a les 24 UTC
Vent 10 kt del Nord/Nord-Oest
Visibilitat 10 km o més
sense núvols per sota de 1500 mi sense presència de cumulonimbus.
Probabilitat 30% :
Temporalment
l' 17 a les 23 UTC al 18 a les 08 UTC
Visibilitat: 3000 m
Núvols disperses a una alçada de 400 ft
boirina

TAF: GMFO 171700Z 1718/1824 33010KT CAVOK PROB30 TEMPO 1723/1808 3000 BR SCT004

Observacions i pronòstics meteorològics de més de 4000 aeroports (METAR i TAF).

Les estacions disponibles són els punts grocs i vermells al mapa.

Posi el ratolí al punt desitjat per veure el nom de l'estació.

Feu clic per veure les observacions i els pronòstics meteorològics.

Per canviar el mapa: feu clic els botons verds amb una creu de color negre per apropar; al botó verd amb un guió per allunyar la imatge; o en les fletxes verdes per a mapes adjacents.


METAR-TAF: